sensor_id;sensor_type;location;lat;lon;timestamp;P1;durP1;ratioP1;P2;durP2;ratioP2
1545;SDS011;766;51.502;9.752;2023-07-20T00:00:02;7.97;;;6.15;;
1545;SDS011;766;51.502;9.752;2023-07-20T00:02:31;10.48;;;8.10;;
1545;SDS011;766;51.502;9.752;2023-07-20T00:05:00;11.07;;;8.05;;
1545;SDS011;766;51.502;9.752;2023-07-20T00:07:28;8.50;;;7.55;;
1545;SDS011;766;51.502;9.752;2023-07-20T00:09:58;7.35;;;6.60;;
1545;SDS011;766;51.502;9.752;2023-07-20T00:12:26;10.52;;;7.00;;
1545;SDS011;766;51.502;9.752;2023-07-20T00:14:54;8.45;;;6.40;;
1545;SDS011;766;51.502;9.752;2023-07-20T00:17:23;9.10;;;6.13;;
1545;SDS011;766;51.502;9.752;2023-07-20T00:19:51;8.15;;;6.25;;
1545;SDS011;766;51.502;9.752;2023-07-20T00:22:19;7.85;;;6.00;;
1545;SDS011;766;51.502;9.752;2023-07-20T00:24:47;7.43;;;5.47;;
1545;SDS011;766;51.502;9.752;2023-07-20T00:27:17;6.43;;;5.32;;
1545;SDS011;766;51.502;9.752;2023-07-20T00:29:46;5.78;;;4.57;;
1545;SDS011;766;51.502;9.752;2023-07-20T00:32:14;6.00;;;4.55;;
1545;SDS011;766;51.502;9.752;2023-07-20T00:34:42;5.63;;;4.35;;
1545;SDS011;766;51.502;9.752;2023-07-20T00:37:11;4.97;;;4.47;;
1545;SDS011;766;51.502;9.752;2023-07-20T00:39:39;7.68;;;4.47;;
1545;SDS011;766;51.502;9.752;2023-07-20T00:42:07;6.22;;;4.20;;
1545;SDS011;766;51.502;9.752;2023-07-20T00:44:37;5.18;;;4.30;;
1545;SDS011;766;51.502;9.752;2023-07-20T00:47:06;5.20;;;4.50;;
1545;SDS011;766;51.502;9.752;2023-07-20T00:49:35;7.57;;;4.80;;
1545;SDS011;766;51.502;9.752;2023-07-20T00:52:04;5.18;;;4.55;;
1545;SDS011;766;51.502;9.752;2023-07-20T00:54:35;5.07;;;4.35;;
1545;SDS011;766;51.502;9.752;2023-07-20T00:57:04;5.82;;;4.55;;
1545;SDS011;766;51.502;9.752;2023-07-20T00:59:34;5.00;;;4.45;;
1545;SDS011;766;51.502;9.752;2023-07-20T01:02:05;5.95;;;4.38;;
1545;SDS011;766;51.502;9.752;2023-07-20T01:04:33;4.82;;;4.05;;
1545;SDS011;766;51.502;9.752;2023-07-20T01:07:06;5.68;;;4.10;;
1545;SDS011;766;51.502;9.752;2023-07-20T01:09:42;5.47;;;3.92;;
1545;SDS011;766;51.502;9.752;2023-07-20T01:12:17;5.60;;;4.03;;
1545;SDS011;766;51.502;9.752;2023-07-20T01:14:50;4.40;;;3.25;;
1545;SDS011;766;51.502;9.752;2023-07-20T01:17:20;7.60;;;3.75;;
1545;SDS011;766;51.502;9.752;2023-07-20T01:19:50;5.47;;;3.80;;
1545;SDS011;766;51.502;9.752;2023-07-20T01:22:21;5.07;;;3.63;;
1545;SDS011;766;51.502;9.752;2023-07-20T01:25:09;3.60;;;3.28;;
1545;SDS011;766;51.502;9.752;2023-07-20T01:28:02;5.03;;;3.30;;
1545;SDS011;766;51.502;9.752;2023-07-20T01:31:16;4.53;;;3.22;;
1545;SDS011;766;51.502;9.752;2023-07-20T01:33:47;4.50;;;3.10;;
1545;SDS011;766;51.502;9.752;2023-07-20T01:36:18;4.47;;;2.90;;
1545;SDS011;766;51.502;9.752;2023-07-20T01:38:47;4.70;;;2.83;;
1545;SDS011;766;51.502;9.752;2023-07-20T01:41:15;6.57;;;2.75;;
1545;SDS011;766;51.502;9.752;2023-07-20T01:43:45;3.50;;;3.20;;
1545;SDS011;766;51.502;9.752;2023-07-20T01:46:14;3.60;;;3.17;;
1545;SDS011;766;51.502;9.752;2023-07-20T01:48:46;3.10;;;2.80;;
1545;SDS011;766;51.502;9.752;2023-07-20T01:51:15;3.53;;;2.95;;
1545;SDS011;766;51.502;9.752;2023-07-20T01:53:44;2.42;;;2.20;;
1545;SDS011;766;51.502;9.752;2023-07-20T01:56:12;3.47;;;3.10;;
1545;SDS011;766;51.502;9.752;2023-07-20T01:58:43;3.10;;;2.80;;
1545;SDS011;766;51.502;9.752;2023-07-20T02:01:11;4.30;;;3.33;;
1545;SDS011;766;51.502;9.752;2023-07-20T02:03:41;3.25;;;2.50;;
1545;SDS011;766;51.502;9.752;2023-07-20T02:06:09;3.25;;;2.90;;
1545;SDS011;766;51.502;9.752;2023-07-20T02:08:37;4.47;;;2.78;;
1545;SDS011;766;51.502;9.752;2023-07-20T02:11:06;3.92;;;2.70;;
1545;SDS011;766;51.502;9.752;2023-07-20T02:13:36;7.70;;;4.35;;
1545;SDS011;766;51.502;9.752;2023-07-20T02:16:04;6.85;;;3.90;;
1545;SDS011;766;51.502;9.752;2023-07-20T02:18:33;12.20;;;4.30;;
1545;SDS011;766;51.502;9.752;2023-07-20T02:21:04;7.40;;;3.40;;
1545;SDS011;766;51.502;9.752;2023-07-20T02:23:32;8.50;;;3.97;;
1545;SDS011;766;51.502;9.752;2023-07-20T02:26:01;3.53;;;3.13;;
1545;SDS011;766;51.502;9.752;2023-07-20T02:28:29;7.43;;;3.80;;
1545;SDS011;766;51.502;9.752;2023-07-20T02:30:57;8.23;;;4.07;;
1545;SDS011;766;51.502;9.752;2023-07-20T02:33:25;5.93;;;3.83;;
1545;SDS011;766;51.502;9.752;2023-07-20T02:35:54;7.07;;;3.97;;
1545;SDS011;766;51.502;9.752;2023-07-20T02:38:23;5.05;;;3.75;;
1545;SDS011;766;51.502;9.752;2023-07-20T02:40:51;4.22;;;3.83;;
1545;SDS011;766;51.502;9.752;2023-07-20T02:43:20;3.33;;;2.90;;
1545;SDS011;766;51.502;9.752;2023-07-20T02:45:50;3.38;;;2.92;;
1545;SDS011;766;51.502;9.752;2023-07-20T02:48:20;3.80;;;3.13;;
1545;SDS011;766;51.502;9.752;2023-07-20T02:50:48;3.92;;;3.35;;
1545;SDS011;766;51.502;9.752;2023-07-20T02:53:17;4.20;;;2.83;;
1545;SDS011;766;51.502;9.752;2023-07-20T02:55:46;3.72;;;2.60;;
1545;SDS011;766;51.502;9.752;2023-07-20T02:58:14;3.92;;;2.78;;
1545;SDS011;766;51.502;9.752;2023-07-20T03:00:43;10.25;;;3.00;;
1545;SDS011;766;51.502;9.752;2023-07-20T03:03:11;4.30;;;3.40;;
1545;SDS011;766;51.502;9.752;2023-07-20T03:05:40;7.22;;;3.75;;
1545;SDS011;766;51.502;9.752;2023-07-20T03:08:08;8.13;;;5.05;;
1545;SDS011;766;51.502;9.752;2023-07-20T03:10:40;8.23;;;6.75;;
1545;SDS011;766;51.502;9.752;2023-07-20T03:13:10;8.95;;;6.45;;
1545;SDS011;766;51.502;9.752;2023-07-20T03:15:39;10.00;;;7.78;;
1545;SDS011;766;51.502;9.752;2023-07-20T03:18:08;8.95;;;7.15;;
1545;SDS011;766;51.502;9.752;2023-07-20T03:20:36;9.00;;;7.03;;
1545;SDS011;766;51.502;9.752;2023-07-20T03:23:06;8.80;;;7.78;;
1545;SDS011;766;51.502;9.752;2023-07-20T03:25:34;11.30;;;8.13;;
1545;SDS011;766;51.502;9.752;2023-07-20T03:28:04;9.15;;;7.95;;
1545;SDS011;766;51.502;9.752;2023-07-20T03:30:33;10.05;;;8.07;;
1545;SDS011;766;51.502;9.752;2023-07-20T03:33:02;8.13;;;7.13;;
1545;SDS011;766;51.502;9.752;2023-07-20T03:35:31;9.52;;;8.52;;
1545;SDS011;766;51.502;9.752;2023-07-20T03:37:59;9.65;;;8.68;;
1545;SDS011;766;51.502;9.752;2023-07-20T03:40:28;9.60;;;8.73;;
1545;SDS011;766;51.502;9.752;2023-07-20T03:42:56;10.77;;;8.38;;
1545;SDS011;766;51.502;9.752;2023-07-20T03:45:24;10.23;;;8.43;;
1545;SDS011;766;51.502;9.752;2023-07-20T03:47:54;8.88;;;7.97;;
1545;SDS011;766;51.502;9.752;2023-07-20T03:50:23;9.75;;;8.75;;
1545;SDS011;766;51.502;9.752;2023-07-20T03:52:51;9.85;;;8.90;;
1545;SDS011;766;51.502;9.752;2023-07-20T03:55:19;9.90;;;8.90;;
1545;SDS011;766;51.502;9.752;2023-07-20T03:57:48;10.57;;;9.55;;
1545;SDS011;766;51.502;9.752;2023-07-20T04:00:17;11.95;;;9.05;;
1545;SDS011;766;51.502;9.752;2023-07-20T04:02:46;10.40;;;9.30;;
1545;SDS011;766;51.502;9.752;2023-07-20T04:05:16;10.75;;;9.07;;
1545;SDS011;766;51.502;9.752;2023-07-20T04:07:45;14.02;;;10.25;;
1545;SDS011;766;51.502;9.752;2023-07-20T04:10:17;11.90;;;9.45;;
1545;SDS011;766;51.502;9.752;2023-07-20T04:12:48;10.68;;;8.73;;
1545;SDS011;766;51.502;9.752;2023-07-20T04:15:17;11.30;;;9.73;;
1545;SDS011;766;51.502;9.752;2023-07-20T04:17:46;11.98;;;9.75;;
1545;SDS011;766;51.502;9.752;2023-07-20T04:20:16;10.15;;;8.98;;
1545;SDS011;766;51.502;9.752;2023-07-20T04:22:45;10.82;;;9.50;;
1545;SDS011;766;51.502;9.752;2023-07-20T04:25:14;9.30;;;8.40;;
1545;SDS011;766;51.502;9.752;2023-07-20T04:27:42;11.68;;;8.95;;
1545;SDS011;766;51.502;9.752;2023-07-20T04:30:11;10.10;;;8.85;;
1545;SDS011;766;51.502;9.752;2023-07-20T04:32:42;9.20;;;8.30;;
1545;SDS011;766;51.502;9.752;2023-07-20T04:35:16;13.20;;;9.30;;
1545;SDS011;766;51.502;9.752;2023-07-20T04:37:46;11.30;;;10.15;;
1545;SDS011;766;51.502;9.752;2023-07-20T04:40:15;13.65;;;9.77;;
1545;SDS011;766;51.502;9.752;2023-07-20T04:42:44;14.30;;;10.48;;
1545;SDS011;766;51.502;9.752;2023-07-20T04:45:12;12.63;;;10.43;;
1545;SDS011;766;51.502;9.752;2023-07-20T04:47:41;16.98;;;11.13;;
1545;SDS011;766;51.502;9.752;2023-07-20T04:50:10;15.45;;;12.15;;
1545;SDS011;766;51.502;9.752;2023-07-20T04:52:39;12.30;;;10.80;;
1545;SDS011;766;51.502;9.752;2023-07-20T04:55:08;13.80;;;10.90;;
1545;SDS011;766;51.502;9.752;2023-07-20T04:57:39;12.38;;;11.07;;
1545;SDS011;766;51.502;9.752;2023-07-20T05:00:08;12.70;;;9.82;;
1545;SDS011;766;51.502;9.752;2023-07-20T05:02:38;10.75;;;9.52;;
1545;SDS011;766;51.502;9.752;2023-07-20T05:05:06;11.50;;;10.13;;
1545;SDS011;766;51.502;9.752;2023-07-20T05:07:35;10.98;;;9.85;;
1545;SDS011;766;51.502;9.752;2023-07-20T05:10:06;14.23;;;11.43;;
1545;SDS011;766;51.502;9.752;2023-07-20T05:12:35;13.68;;;12.15;;
1545;SDS011;766;51.502;9.752;2023-07-20T05:15:04;14.75;;;13.18;;
1545;SDS011;766;51.502;9.752;2023-07-20T05:17:33;17.20;;;13.65;;
1545;SDS011;766;51.502;9.752;2023-07-20T05:20:01;18.13;;;15.20;;
1545;SDS011;766;51.502;9.752;2023-07-20T05:22:31;19.27;;;17.17;;
1545;SDS011;766;51.502;9.752;2023-07-20T05:25:00;19.83;;;16.55;;
1545;SDS011;766;51.502;9.752;2023-07-20T05:27:30;19.52;;;14.90;;
1545;SDS011;766;51.502;9.752;2023-07-20T05:29:58;18.52;;;16.67;;
1545;SDS011;766;51.502;9.752;2023-07-20T05:32:27;19.52;;;16.70;;
1545;SDS011;766;51.502;9.752;2023-07-20T05:34:56;16.73;;;14.93;;
1545;SDS011;766;51.502;9.752;2023-07-20T05:37:24;17.60;;;15.48;;
1545;SDS011;766;51.502;9.752;2023-07-20T05:39:53;19.55;;;14.95;;
1545;SDS011;766;51.502;9.752;2023-07-20T05:42:21;15.77;;;14.27;;
1545;SDS011;766;51.502;9.752;2023-07-20T05:44:51;15.30;;;13.63;;
1545;SDS011;766;51.502;9.752;2023-07-20T05:47:19;18.33;;;13.23;;
1545;SDS011;766;51.502;9.752;2023-07-20T05:49:51;16.13;;;13.30;;
1545;SDS011;766;51.502;9.752;2023-07-20T05:52:19;18.30;;;12.75;;
1545;SDS011;766;51.502;9.752;2023-07-20T05:54:47;16.00;;;12.65;;
1545;SDS011;766;51.502;9.752;2023-07-20T05:57:15;13.73;;;11.68;;
1545;SDS011;766;51.502;9.752;2023-07-20T05:59:44;13.60;;;11.07;;
1545;SDS011;766;51.502;9.752;2023-07-20T06:02:14;12.07;;;10.65;;
1545;SDS011;766;51.502;9.752;2023-07-20T06:04:42;12.35;;;10.40;;
1545;SDS011;766;51.502;9.752;2023-07-20T06:07:11;13.13;;;10.68;;
1545;SDS011;766;51.502;9.752;2023-07-20T06:09:39;14.48;;;11.38;;
1545;SDS011;766;51.502;9.752;2023-07-20T06:12:08;14.90;;;12.25;;
1545;SDS011;766;51.502;9.752;2023-07-20T06:14:37;17.67;;;11.85;;
1545;SDS011;766;51.502;9.752;2023-07-20T06:17:05;15.20;;;11.13;;
1545;SDS011;766;51.502;9.752;2023-07-20T06:19:35;17.92;;;11.18;;
1545;SDS011;766;51.502;9.752;2023-07-20T06:22:04;19.58;;;11.32;;
1545;SDS011;766;51.502;9.752;2023-07-20T06:24:32;12.95;;;11.38;;
1545;SDS011;766;51.502;9.752;2023-07-20T06:27:01;14.50;;;11.35;;
1545;SDS011;766;51.502;9.752;2023-07-20T06:29:29;15.38;;;11.95;;
1545;SDS011;766;51.502;9.752;2023-07-20T06:31:57;13.23;;;11.63;;
1545;SDS011;766;51.502;9.752;2023-07-20T06:34:26;15.00;;;12.20;;
1545;SDS011;766;51.502;9.752;2023-07-20T06:36:56;16.00;;;13.07;;
1545;SDS011;766;51.502;9.752;2023-07-20T06:39:25;16.17;;;12.88;;
1545;SDS011;766;51.502;9.752;2023-07-20T06:41:56;14.40;;;11.63;;
1545;SDS011;766;51.502;9.752;2023-07-20T06:44:25;14.10;;;12.55;;
1545;SDS011;766;51.502;9.752;2023-07-20T06:46:53;15.60;;;13.82;;
1545;SDS011;766;51.502;9.752;2023-07-20T06:49:25;17.10;;;13.80;;
1545;SDS011;766;51.502;9.752;2023-07-20T06:51:56;19.88;;;13.88;;
1545;SDS011;766;51.502;9.752;2023-07-20T06:54:24;15.40;;;12.38;;
1545;SDS011;766;51.502;9.752;2023-07-20T06:56:53;17.17;;;13.45;;
1545;SDS011;766;51.502;9.752;2023-07-20T06:59:27;16.50;;;13.70;;
1545;SDS011;766;51.502;9.752;2023-07-20T07:01:55;17.10;;;13.07;;
1545;SDS011;766;51.502;9.752;2023-07-20T07:04:26;18.05;;;13.75;;
1545;SDS011;766;51.502;9.752;2023-07-20T07:06:56;15.82;;;12.45;;
1545;SDS011;766;51.502;9.752;2023-07-20T07:09:24;15.52;;;11.75;;
1545;SDS011;766;51.502;9.752;2023-07-20T07:11:53;12.05;;;10.55;;
1545;SDS011;766;51.502;9.752;2023-07-20T07:14:21;13.52;;;11.02;;
1545;SDS011;766;51.502;9.752;2023-07-20T07:16:53;15.93;;;11.85;;
1545;SDS011;766;51.502;9.752;2023-07-20T07:19:24;16.88;;;12.40;;
1545;SDS011;766;51.502;9.752;2023-07-20T07:21:52;14.18;;;12.68;;
1545;SDS011;766;51.502;9.752;2023-07-20T07:24:27;13.45;;;11.63;;
1545;SDS011;766;51.502;9.752;2023-07-20T07:27:00;14.27;;;10.52;;
1545;SDS011;766;51.502;9.752;2023-07-20T07:29:30;9.38;;;8.23;;
1545;SDS011;766;51.502;9.752;2023-07-20T07:31:59;6.72;;;4.85;;
1545;SDS011;766;51.502;9.752;2023-07-20T07:34:28;3.80;;;3.30;;
1545;SDS011;766;51.502;9.752;2023-07-20T07:36:56;3.40;;;2.58;;
1545;SDS011;766;51.502;9.752;2023-07-20T07:39:25;2.83;;;2.42;;
1545;SDS011;766;51.502;9.752;2023-07-20T07:42:02;3.80;;;2.15;;
1545;SDS011;766;51.502;9.752;2023-07-20T07:44:31;2.50;;;2.30;;
1545;SDS011;766;51.502;9.752;2023-07-20T07:46:59;3.00;;;2.30;;
1545;SDS011;766;51.502;9.752;2023-07-20T07:49:27;2.40;;;2.20;;
1545;SDS011;766;51.502;9.752;2023-07-20T07:51:56;2.08;;;1.90;;
1545;SDS011;766;51.502;9.752;2023-07-20T07:54:24;2.05;;;1.80;;
1545;SDS011;766;51.502;9.752;2023-07-20T07:56:53;2.97;;;1.70;;
1545;SDS011;766;51.502;9.752;2023-07-20T07:59:22;2.75;;;1.90;;
1545;SDS011;766;51.502;9.752;2023-07-20T08:01:51;5.32;;;1.83;;
1545;SDS011;766;51.502;9.752;2023-07-20T08:04:19;3.10;;;2.13;;
1545;SDS011;766;51.502;9.752;2023-07-20T08:06:47;2.40;;;1.90;;
1545;SDS011;766;51.502;9.752;2023-07-20T08:09:16;2.97;;;2.70;;
1545;SDS011;766;51.502;9.752;2023-07-20T08:11:44;4.15;;;2.20;;
1545;SDS011;766;51.502;9.752;2023-07-20T08:14:14;3.22;;;2.42;;
1545;SDS011;766;51.502;9.752;2023-07-20T08:16:43;4.32;;;2.45;;
1545;SDS011;766;51.502;9.752;2023-07-20T08:19:12;2.78;;;2.40;;
1545;SDS011;766;51.502;9.752;2023-07-20T08:21:40;2.60;;;2.40;;
1545;SDS011;766;51.502;9.752;2023-07-20T08:24:09;3.25;;;2.30;;
1545;SDS011;766;51.502;9.752;2023-07-20T08:26:37;2.60;;;2.35;;
1545;SDS011;766;51.502;9.752;2023-07-20T08:29:06;3.58;;;3.08;;
1545;SDS011;766;51.502;9.752;2023-07-20T08:31:35;3.25;;;2.95;;
1545;SDS011;766;51.502;9.752;2023-07-20T08:34:04;3.35;;;3.05;;
1545;SDS011;766;51.502;9.752;2023-07-20T08:36:53;4.95;;;3.33;;
1545;SDS011;766;51.502;9.752;2023-07-20T08:39:22;5.43;;;3.33;;
1545;SDS011;766;51.502;9.752;2023-07-20T08:41:50;3.92;;;3.53;;
1545;SDS011;766;51.502;9.752;2023-07-20T08:44:19;4.20;;;3.90;;
1545;SDS011;766;51.502;9.752;2023-07-20T08:46:47;3.03;;;2.78;;
1545;SDS011;766;51.502;9.752;2023-07-20T08:49:17;3.15;;;2.95;;
1545;SDS011;766;51.502;9.752;2023-07-20T08:51:47;3.15;;;2.30;;
1545;SDS011;766;51.502;9.752;2023-07-20T08:54:16;2.22;;;1.95;;
1545;SDS011;766;51.502;9.752;2023-07-20T08:56:45;4.15;;;2.00;;
1545;SDS011;766;51.502;9.752;2023-07-20T08:59:14;2.90;;;2.50;;
1545;SDS011;766;51.502;9.752;2023-07-20T09:01:44;1.80;;;1.70;;
1545;SDS011;766;51.502;9.752;2023-07-20T09:04:13;2.10;;;1.60;;
1545;SDS011;766;51.502;9.752;2023-07-20T09:06:44;4.28;;;1.40;;
1545;SDS011;766;51.502;9.752;2023-07-20T09:09:13;2.58;;;1.40;;
1545;SDS011;766;51.502;9.752;2023-07-20T09:11:42;3.35;;;1.40;;
1545;SDS011;766;51.502;9.752;2023-07-20T09:14:11;1.48;;;1.02;;
1545;SDS011;766;51.502;9.752;2023-07-20T09:16:46;1.23;;;1.13;;
1545;SDS011;766;51.502;9.752;2023-07-20T09:19:17;2.17;;;1.63;;
1545;SDS011;766;51.502;9.752;2023-07-20T09:21:47;1.98;;;1.48;;
1545;SDS011;766;51.502;9.752;2023-07-20T09:24:18;3.67;;;1.40;;
1545;SDS011;766;51.502;9.752;2023-07-20T09:26:49;2.20;;;1.17;;
1545;SDS011;766;51.502;9.752;2023-07-20T09:29:18;1.00;;;1.00;;
1545;SDS011;766;51.502;9.752;2023-07-20T09:31:58;2.30;;;1.02;;
1545;SDS011;766;51.502;9.752;2023-07-20T09:34:28;2.08;;;1.20;;
1545;SDS011;766;51.502;9.752;2023-07-20T09:37:05;1.50;;;1.13;;
1545;SDS011;766;51.502;9.752;2023-07-20T09:39:41;1.10;;;1.00;;
1545;SDS011;766;51.502;9.752;2023-07-20T09:42:30;1.00;;;0.90;;
1545;SDS011;766;51.502;9.752;2023-07-20T09:45:01;1.80;;;1.10;;
1545;SDS011;766;51.502;9.752;2023-07-20T09:47:29;1.55;;;1.00;;
1545;SDS011;766;51.502;9.752;2023-07-20T09:49:59;1.05;;;0.95;;
1545;SDS011;766;51.502;9.752;2023-07-20T09:52:32;1.52;;;0.80;;
1545;SDS011;766;51.502;9.752;2023-07-20T09:55:06;2.00;;;0.90;;
1545;SDS011;766;51.502;9.752;2023-07-20T09:57:35;1.45;;;0.90;;
1545;SDS011;766;51.502;9.752;2023-07-20T10:00:04;2.92;;;0.77;;
1545;SDS011;766;51.502;9.752;2023-07-20T10:02:43;1.45;;;0.70;;
1545;SDS011;766;51.502;9.752;2023-07-20T10:05:13;0.60;;;0.60;;
1545;SDS011;766;51.502;9.752;2023-07-20T10:07:45;0.50;;;0.50;;
1545;SDS011;766;51.502;9.752;2023-07-20T10:10:16;2.47;;;0.68;;
1545;SDS011;766;51.502;9.752;2023-07-20T10:12:46;6.53;;;0.82;;
1545;SDS011;766;51.502;9.752;2023-07-20T10:15:19;2.00;;;0.45;;
1545;SDS011;766;51.502;9.752;2023-07-20T10:17:57;1.10;;;0.70;;
1545;SDS011;766;51.502;9.752;2023-07-20T10:20:35;0.52;;;0.50;;
1545;SDS011;766;51.502;9.752;2023-07-20T10:23:29;0.82;;;0.63;;
1545;SDS011;766;51.502;9.752;2023-07-20T10:25:58;0.63;;;0.63;;
1545;SDS011;766;51.502;9.752;2023-07-20T10:28:28;0.50;;;0.50;;
1545;SDS011;766;51.502;9.752;2023-07-20T10:30:57;0.70;;;0.60;;
1545;SDS011;766;51.502;9.752;2023-07-20T10:33:26;1.75;;;0.50;;
1545;SDS011;766;51.502;9.752;2023-07-20T10:35:54;1.13;;;0.60;;
1545;SDS011;766;51.502;9.752;2023-07-20T10:41:22;1.05;;;0.50;;
1545;SDS011;766;51.502;9.752;2023-07-20T10:43:58;0.88;;;0.60;;
1545;SDS011;766;51.502;9.752;2023-07-20T10:46:34;0.70;;;0.57;;
1545;SDS011;766;51.502;9.752;2023-07-20T10:49:11;0.70;;;0.40;;
1545;SDS011;766;51.502;9.752;2023-07-20T10:51:42;1.58;;;0.60;;
1545;SDS011;766;51.502;9.752;2023-07-20T10:57:24;1.30;;;0.70;;
1545;SDS011;766;51.502;9.752;2023-07-20T11:02:49;1.02;;;0.82;;
1545;SDS011;766;51.502;9.752;2023-07-20T11:05:31;0.93;;;0.50;;
1545;SDS011;766;51.502;9.752;2023-07-20T11:08:02;0.57;;;0.50;;
1545;SDS011;766;51.502;9.752;2023-07-20T11:10:33;2.08;;;0.50;;
1545;SDS011;766;51.502;9.752;2023-07-20T11:13:16;0.80;;;0.52;;
1545;SDS011;766;51.502;9.752;2023-07-20T11:15:45;1.95;;;0.50;;
1545;SDS011;766;51.502;9.752;2023-07-20T11:18:14;0.80;;;0.57;;
1545;SDS011;766;51.502;9.752;2023-07-20T11:20:43;0.57;;;0.57;;
1545;SDS011;766;51.502;9.752;2023-07-20T11:23:12;0.73;;;0.55;;
1545;SDS011;766;51.502;9.752;2023-07-20T11:25:42;1.00;;;0.70;;
1545;SDS011;766;51.502;9.752;2023-07-20T11:28:10;0.60;;;0.60;;
1545;SDS011;766;51.502;9.752;2023-07-20T11:30:39;2.05;;;0.70;;
1545;SDS011;766;51.502;9.752;2023-07-20T11:33:08;0.98;;;0.70;;
1545;SDS011;766;51.502;9.752;2023-07-20T11:35:41;3.60;;;0.80;;
1545;SDS011;766;51.502;9.752;2023-07-20T11:38:12;3.63;;;0.85;;
1545;SDS011;766;51.502;9.752;2023-07-20T11:40:44;1.58;;;0.60;;
1545;SDS011;766;51.502;9.752;2023-07-20T11:43:13;0.77;;;0.60;;
1545;SDS011;766;51.502;9.752;2023-07-20T11:45:45;0.95;;;0.50;;
1545;SDS011;766;51.502;9.752;2023-07-20T11:48:14;0.73;;;0.43;;
1545;SDS011;766;51.502;9.752;2023-07-20T11:50:44;0.88;;;0.60;;
1545;SDS011;766;51.502;9.752;2023-07-20T11:53:14;0.55;;;0.55;;
1545;SDS011;766;51.502;9.752;2023-07-20T11:55:44;2.38;;;0.70;;
1545;SDS011;766;51.502;9.752;2023-07-20T11:58:14;0.52;;;0.52;;
1545;SDS011;766;51.502;9.752;2023-07-20T12:00:44;0.90;;;0.60;;
1545;SDS011;766;51.502;9.752;2023-07-20T12:03:13;0.50;;;0.50;;
1545;SDS011;766;51.502;9.752;2023-07-20T12:05:41;1.48;;;0.80;;
1545;SDS011;766;51.502;9.752;2023-07-20T12:08:27;1.85;;;1.02;;
1545;SDS011;766;51.502;9.752;2023-07-20T12:10:57;0.82;;;0.70;;
1545;SDS011;766;51.502;9.752;2023-07-20T12:13:35;2.55;;;0.70;;
1545;SDS011;766;51.502;9.752;2023-07-20T12:16:08;1.05;;;0.60;;
1545;SDS011;766;51.502;9.752;2023-07-20T12:18:39;0.80;;;0.50;;
1545;SDS011;766;51.502;9.752;2023-07-20T12:21:08;1.20;;;0.70;;
1545;SDS011;766;51.502;9.752;2023-07-20T12:23:37;0.50;;;0.50;;
1545;SDS011;766;51.502;9.752;2023-07-20T12:26:09;1.00;;;0.70;;
1545;SDS011;766;51.502;9.752;2023-07-20T12:28:41;1.17;;;0.70;;
1545;SDS011;766;51.502;9.752;2023-07-20T12:31:10;1.85;;;0.80;;
1545;SDS011;766;51.502;9.752;2023-07-20T12:33:39;0.80;;;0.60;;
1545;SDS011;766;51.502;9.752;2023-07-20T12:36:08;0.60;;;0.40;;
1545;SDS011;766;51.502;9.752;2023-07-20T12:38:37;0.93;;;0.70;;
1545;SDS011;766;51.502;9.752;2023-07-20T12:41:09;0.63;;;0.57;;
1545;SDS011;766;51.502;9.752;2023-07-20T12:43:40;0.70;;;0.70;;
1545;SDS011;766;51.502;9.752;2023-07-20T12:46:09;0.57;;;0.50;;
1545;SDS011;766;51.502;9.752;2023-07-20T12:48:40;1.30;;;0.70;;
1545;SDS011;766;51.502;9.752;2023-07-20T12:51:13;0.70;;;0.70;;
1545;SDS011;766;51.502;9.752;2023-07-20T12:53:41;1.90;;;1.50;;
1545;SDS011;766;51.502;9.752;2023-07-20T12:56:12;1.10;;;0.82;;
1545;SDS011;766;51.502;9.752;2023-07-20T12:58:44;0.82;;;0.70;;
1545;SDS011;766;51.502;9.752;2023-07-20T13:01:15;1.35;;;1.02;;
1545;SDS011;766;51.502;9.752;2023-07-20T13:03:47;1.10;;;0.70;;
1545;SDS011;766;51.502;9.752;2023-07-20T13:06:18;0.70;;;0.60;;
1545;SDS011;766;51.502;9.752;2023-07-20T13:08:49;1.10;;;0.73;;
1545;SDS011;766;51.502;9.752;2023-07-20T13:11:23;0.68;;;0.60;;
1545;SDS011;766;51.502;9.752;2023-07-20T13:13:52;1.00;;;0.80;;
1545;SDS011;766;51.502;9.752;2023-07-20T13:16:23;1.10;;;0.70;;
1545;SDS011;766;51.502;9.752;2023-07-20T13:18:51;1.05;;;0.90;;
1545;SDS011;766;51.502;9.752;2023-07-20T13:21:20;2.45;;;0.93;;
1545;SDS011;766;51.502;9.752;2023-07-20T13:23:52;0.95;;;0.80;;
1545;SDS011;766;51.502;9.752;2023-07-20T13:26:21;0.85;;;0.60;;
1545;SDS011;766;51.502;9.752;2023-07-20T13:28:50;0.95;;;0.70;;
1545;SDS011;766;51.502;9.752;2023-07-20T13:31:21;1.60;;;0.60;;
1545;SDS011;766;51.502;9.752;2023-07-20T13:33:50;1.30;;;0.80;;
1545;SDS011;766;51.502;9.752;2023-07-20T13:36:25;2.55;;;0.80;;
1545;SDS011;766;51.502;9.752;2023-07-20T13:38:56;1.33;;;0.75;;
1545;SDS011;766;51.502;9.752;2023-07-20T13:41:25;2.03;;;0.90;;
1545;SDS011;766;51.502;9.752;2023-07-20T13:43:57;0.80;;;0.70;;
1545;SDS011;766;51.502;9.752;2023-07-20T13:46:25;0.55;;;0.50;;
1545;SDS011;766;51.502;9.752;2023-07-20T13:48:57;1.13;;;0.60;;
1545;SDS011;766;51.502;9.752;2023-07-20T13:51:25;0.80;;;0.70;;
1545;SDS011;766;51.502;9.752;2023-07-20T13:53:55;2.70;;;0.95;;
1545;SDS011;766;51.502;9.752;2023-07-20T13:56:23;0.63;;;0.60;;
1545;SDS011;766;51.502;9.752;2023-07-20T13:58:52;2.78;;;0.60;;
1545;SDS011;766;51.502;9.752;2023-07-20T14:01:25;0.65;;;0.55;;
1545;SDS011;766;51.502;9.752;2023-07-20T14:03:55;2.10;;;0.60;;
1545;SDS011;766;51.502;9.752;2023-07-20T14:06:30;1.02;;;0.82;;
1545;SDS011;766;51.502;9.752;2023-07-20T14:09:00;1.80;;;0.80;;
1545;SDS011;766;51.502;9.752;2023-07-20T14:11:30;1.15;;;0.80;;
1545;SDS011;766;51.502;9.752;2023-07-20T14:14:02;0.90;;;0.70;;
1545;SDS011;766;51.502;9.752;2023-07-20T14:16:31;1.17;;;0.70;;
1545;SDS011;766;51.502;9.752;2023-07-20T14:19:00;1.25;;;1.00;;
1545;SDS011;766;51.502;9.752;2023-07-20T14:21:31;1.17;;;0.60;;
1545;SDS011;766;51.502;9.752;2023-07-20T14:24:00;0.75;;;0.60;;
1545;SDS011;766;51.502;9.752;2023-07-20T14:26:28;0.77;;;0.60;;
1545;SDS011;766;51.502;9.752;2023-07-20T14:28:59;0.85;;;0.73;;
1545;SDS011;766;51.502;9.752;2023-07-20T14:31:28;0.52;;;0.52;;
1545;SDS011;766;51.502;9.752;2023-07-20T14:33:59;0.50;;;0.50;;
1545;SDS011;766;51.502;9.752;2023-07-20T14:36:28;1.65;;;0.70;;
1545;SDS011;766;51.502;9.752;2023-07-20T14:38:59;0.70;;;0.70;;
1545;SDS011;766;51.502;9.752;2023-07-20T14:41:29;0.82;;;0.60;;
1545;SDS011;766;51.502;9.752;2023-07-20T14:43:57;0.85;;;0.57;;
1545;SDS011;766;51.502;9.752;2023-07-20T14:46:27;0.73;;;0.50;;
1545;SDS011;766;51.502;9.752;2023-07-20T14:48:56;1.50;;;0.80;;
1545;SDS011;766;51.502;9.752;2023-07-20T14:51:26;0.95;;;0.52;;
1545;SDS011;766;51.502;9.752;2023-07-20T14:54:01;2.65;;;0.52;;
1545;SDS011;766;51.502;9.752;2023-07-20T14:56:29;3.85;;;0.70;;
1545;SDS011;766;51.502;9.752;2023-07-20T14:58:58;0.77;;;0.70;;
1545;SDS011;766;51.502;9.752;2023-07-20T15:01:27;0.80;;;0.60;;
1545;SDS011;766;51.502;9.752;2023-07-20T15:03:55;1.00;;;0.60;;
1545;SDS011;766;51.502;9.752;2023-07-20T15:06:26;1.08;;;0.60;;
1545;SDS011;766;51.502;9.752;2023-07-20T15:08:56;0.77;;;0.60;;
1545;SDS011;766;51.502;9.752;2023-07-20T15:11:27;1.58;;;0.60;;
1545;SDS011;766;51.502;9.752;2023-07-20T15:13:56;0.75;;;0.52;;
1545;SDS011;766;51.502;9.752;2023-07-20T15:16:24;0.65;;;0.65;;
1545;SDS011;766;51.502;9.752;2023-07-20T15:18:53;2.58;;;0.70;;
1545;SDS011;766;51.502;9.752;2023-07-20T15:21:22;1.80;;;0.60;;
1545;SDS011;766;51.502;9.752;2023-07-20T15:23:52;1.20;;;0.80;;
1545;SDS011;766;51.502;9.752;2023-07-20T15:26:21;0.70;;;0.70;;
1545;SDS011;766;51.502;9.752;2023-07-20T15:28:50;2.13;;;0.70;;
1545;SDS011;766;51.502;9.752;2023-07-20T15:31:18;0.52;;;0.50;;
1545;SDS011;766;51.502;9.752;2023-07-20T15:34:07;2.88;;;0.77;;
1545;SDS011;766;51.502;9.752;2023-07-20T15:36:40;0.98;;;0.70;;
1545;SDS011;766;51.502;9.752;2023-07-20T15:39:09;0.75;;;0.75;;
1545;SDS011;766;51.502;9.752;2023-07-20T15:41:38;0.80;;;0.70;;
1545;SDS011;766;51.502;9.752;2023-07-20T15:44:06;0.73;;;0.45;;
1545;SDS011;766;51.502;9.752;2023-07-20T15:46:45;1.02;;;0.63;;
1545;SDS011;766;51.502;9.752;2023-07-20T15:49:16;0.93;;;0.60;;
1545;SDS011;766;51.502;9.752;2023-07-20T15:51:45;0.75;;;0.68;;